sensor_id;sensor_type;location;lat;lon;timestamp;pressure;altitude;pressure_sealevel;temperature;humidity
59110;BME280;44895;47.438;18.978;2024-03-22T00:01:51;100353.66;;;9.77;100.00
59110;BME280;44895;47.438;18.978;2024-03-22T00:04:54;100346.25;;;9.88;100.00
59110;BME280;44895;47.438;18.978;2024-03-22T00:07:58;100352.88;;;10.11;100.00
59110;BME280;44895;47.438;18.978;2024-03-22T00:11:02;100350.84;;;10.22;100.00
59110;BME280;44895;47.438;18.978;2024-03-22T00:14:05;100344.25;;;10.33;100.00
59110;BME280;44895;47.438;18.978;2024-03-22T00:17:09;100341.25;;;10.35;100.00
59110;BME280;44895;47.438;18.978;2024-03-22T00:20:13;100343.94;;;10.40;100.00
59110;BME280;44895;47.438;18.978;2024-03-22T00:23:17;100341.25;;;10.35;100.00
59110;BME280;44895;47.438;18.978;2024-03-22T00:26:21;100345.31;;;10.42;100.00
59110;BME280;44895;47.438;18.978;2024-03-22T00:29:25;100340.63;;;10.48;100.00
59110;BME280;44895;47.438;18.978;2024-03-22T00:32:29;100344.97;;;10.49;100.00
59110;BME280;44895;47.438;18.978;2024-03-22T00:35:33;100334.56;;;10.56;100.00
59110;BME280;44895;47.438;18.978;2024-03-22T00:38:37;100332.75;;;10.47;100.00
59110;BME280;44895;47.438;18.978;2024-03-22T00:41:41;100335.19;;;10.48;100.00
59110;BME280;44895;47.438;18.978;2024-03-22T00:44:44;100325.72;;;10.46;100.00
59110;BME280;44895;47.438;18.978;2024-03-22T00:47:48;100332.06;;;10.60;100.00
59110;BME280;44895;47.438;18.978;2024-03-22T00:50:52;100327.47;;;10.60;100.00
59110;BME280;44895;47.438;18.978;2024-03-22T00:53:55;100322.59;;;10.57;100.00
59110;BME280;44895;47.438;18.978;2024-03-22T00:56:59;100326.81;;;10.44;100.00
59110;BME280;44895;47.438;18.978;2024-03-22T01:00:03;100322.09;;;10.55;100.00
59110;BME280;44895;47.438;18.978;2024-03-22T01:03:08;100321.31;;;10.50;100.00
59110;BME280;44895;47.438;18.978;2024-03-22T01:06:13;100318.59;;;10.50;100.00
59110;BME280;44895;47.438;18.978;2024-03-22T01:09:17;100316.47;;;10.47;100.00
59110;BME280;44895;47.438;18.978;2024-03-22T01:12:21;100319.63;;;10.54;100.00
59110;BME280;44895;47.438;18.978;2024-03-22T01:15:25;100326.81;;;10.44;100.00
59110;BME280;44895;47.438;18.978;2024-03-22T01:18:28;100329.50;;;10.44;100.00
59110;BME280;44895;47.438;18.978;2024-03-22T01:21:32;100320.88;;;10.37;100.00
59110;BME280;44895;47.438;18.978;2024-03-22T01:24:36;100329.47;;;10.50;100.00
59110;BME280;44895;47.438;18.978;2024-03-22T01:27:40;100322.78;;;10.66;100.00
59110;BME280;44895;47.438;18.978;2024-03-22T01:30:43;100317.28;;;10.71;100.00
59110;BME280;44895;47.438;18.978;2024-03-22T01:33:47;100318.84;;;10.77;100.00
59110;BME280;44895;47.438;18.978;2024-03-22T01:36:51;100322.38;;;10.78;100.00
59110;BME280;44895;47.438;18.978;2024-03-22T01:39:55;100316.97;;;10.78;100.00
59110;BME280;44895;47.438;18.978;2024-03-22T01:43:00;100316.19;;;10.72;100.00
59110;BME280;44895;47.438;18.978;2024-03-22T01:46:04;100317.00;;;10.73;100.00
59110;BME280;44895;47.438;18.978;2024-03-22T01:49:09;100309.13;;;10.71;100.00
59110;BME280;44895;47.438;18.978;2024-03-22T01:52:14;100314.56;;;10.71;100.00
59110;BME280;44895;47.438;18.978;2024-03-22T01:55:18;100312.94;;;10.70;100.00
59110;BME280;44895;47.438;18.978;2024-03-22T01:58:25;100306.88;;;10.79;100.00
59110;BME280;44895;47.438;18.978;2024-03-22T02:01:28;100309.06;;;10.76;100.00
59110;BME280;44895;47.438;18.978;2024-03-22T02:04:32;100303.88;;;10.80;100.00
59110;BME280;44895;47.438;18.978;2024-03-22T02:07:36;100310.81;;;10.91;100.00
59110;BME280;44895;47.438;18.978;2024-03-22T02:10:40;100302.94;;;10.90;100.00
59110;BME280;44895;47.438;18.978;2024-03-22T02:13:44;100308.84;;;10.97;100.00
59110;BME280;44895;47.438;18.978;2024-03-22T02:16:48;100310.25;;;10.95;100.00
59110;BME280;44895;47.438;18.978;2024-03-22T02:19:52;100301.78;;;10.96;100.00
59110;BME280;44895;47.438;18.978;2024-03-22T02:22:55;100306.41;;;10.96;100.00
59110;BME280;44895;47.438;18.978;2024-03-22T02:26:00;100305.66;;;10.90;100.00
59110;BME280;44895;47.438;18.978;2024-03-22T02:29:04;100310.44;;;10.98;100.00
59110;BME280;44895;47.438;18.978;2024-03-22T02:32:10;100317.88;;;10.92;100.00
59110;BME280;44895;47.438;18.978;2024-03-22T02:35:13;100305.84;;;10.99;100.00
59110;BME280;44895;47.438;18.978;2024-03-22T02:38:17;100303.34;;;11.02;100.00
59110;BME280;44895;47.438;18.978;2024-03-22T02:41:22;100301.44;;;11.03;100.00
59110;BME280;44895;47.438;18.978;2024-03-22T02:44:26;100295.53;;;10.96;100.00
59110;BME280;44895;47.438;18.978;2024-03-22T02:47:30;100299.88;;;10.97;100.00
59110;BME280;44895;47.438;18.978;2024-03-22T02:50:34;100300.41;;;10.99;100.00
59110;BME280;44895;47.438;18.978;2024-03-22T02:53:38;100310.69;;;11.02;100.00
59110;BME280;44895;47.438;18.978;2024-03-22T02:56:42;100293.94;;;10.95;100.00
59110;BME280;44895;47.438;18.978;2024-03-22T02:59:46;100293.56;;;11.01;100.00
59110;BME280;44895;47.438;18.978;2024-03-22T03:02:50;100292.78;;;11.01;100.00
59110;BME280;44895;47.438;18.978;2024-03-22T03:05:54;100284.66;;;10.96;100.00
59110;BME280;44895;47.438;18.978;2024-03-22T03:08:58;100282.69;;;11.01;100.00
59110;BME280;44895;47.438;18.978;2024-03-22T03:12:01;100282.47;;;10.98;100.00
59110;BME280;44895;47.438;18.978;2024-03-22T03:15:05;100284.31;;;11.02;100.00
59110;BME280;44895;47.438;18.978;2024-03-22T03:18:09;100277.84;;;10.98;100.00
59110;BME280;44895;47.438;18.978;2024-03-22T03:21:13;100284.31;;;11.02;100.00
59110;BME280;44895;47.438;18.978;2024-03-22T03:24:17;100289.16;;;11.05;100.00
59110;BME280;44895;47.438;18.978;2024-03-22T03:27:20;100287.53;;;11.04;100.00
59110;BME280;44895;47.438;18.978;2024-03-22T03:30:24;100286.53;;;11.00;100.00
59110;BME280;44895;47.438;18.978;2024-03-22T03:33:28;100287.53;;;11.04;100.00
59110;BME280;44895;47.438;18.978;2024-03-22T03:36:32;100295.06;;;11.13;100.00
59110;BME280;44895;47.438;18.978;2024-03-22T03:39:36;100294.03;;;11.08;100.00
59110;BME280;44895;47.438;18.978;2024-03-22T03:42:39;100293.97;;;11.14;100.00
59110;BME280;44895;47.438;18.978;2024-03-22T03:45:44;100290.72;;;11.12;100.00
59110;BME280;44895;47.438;18.978;2024-03-22T03:48:48;100291.81;;;11.10;100.00
59110;BME280;44895;47.438;18.978;2024-03-22T03:51:52;100306.88;;;11.03;100.00
59110;BME280;44895;47.438;18.978;2024-03-22T03:54:55;100299.75;;;11.07;100.00
59110;BME280;44895;47.438;18.978;2024-03-22T03:57:59;100297.03;;;11.07;100.00
59110;BME280;44895;47.438;18.978;2024-03-22T04:01:06;100307.97;;;11.02;100.00
59110;BME280;44895;47.438;18.978;2024-03-22T04:04:10;100299.53;;;11.03;100.00
59110;BME280;44895;47.438;18.978;2024-03-22T04:07:14;100303.69;;;10.96;100.00
59110;BME280;44895;47.438;18.978;2024-03-22T04:10:17;100303.28;;;11.07;100.00
59110;BME280;44895;47.438;18.978;2024-03-22T04:13:21;100303.41;;;10.97;100.00
59110;BME280;44895;47.438;18.978;2024-03-22T04:16:25;100294.88;;;10.85;100.00
59110;BME280;44895;47.438;18.978;2024-03-22T04:19:28;100301.03;;;10.90;100.00
59110;BME280;44895;47.438;18.978;2024-03-22T04:22:32;100298.53;;;10.94;100.00
59110;BME280;44895;47.438;18.978;2024-03-22T04:25:36;100313.75;;;10.95;100.00
59110;BME280;44895;47.438;18.978;2024-03-22T04:28:40;100306.09;;;10.78;100.00
59110;BME280;44895;47.438;18.978;2024-03-22T04:31:44;100310.31;;;10.89;100.00
59110;BME280;44895;47.438;18.978;2024-03-22T04:34:47;100308.31;;;10.95;100.00
59110;BME280;44895;47.438;18.978;2024-03-22T04:37:51;100312.84;;;10.81;100.00
59110;BME280;44895;47.438;18.978;2024-03-22T04:40:55;100319.44;;;10.74;100.00
59110;BME280;44895;47.438;18.978;2024-03-22T04:43:59;100313.81;;;10.66;100.00
59110;BME280;44895;47.438;18.978;2024-03-22T04:47:03;100321.16;;;10.65;100.00
59110;BME280;44895;47.438;18.978;2024-03-22T04:50:07;100322.72;;;10.71;100.00
59110;BME280;44895;47.438;18.978;2024-03-22T04:53:12;100318.66;;;10.69;100.00
59110;BME280;44895;47.438;18.978;2024-03-22T04:56:16;100326.31;;;10.67;100.00
59110;BME280;44895;47.438;18.978;2024-03-22T04:59:20;100321.91;;;10.71;100.00
59110;BME280;44895;47.438;18.978;2024-03-22T05:02:23;100329.47;;;10.74;100.00
59110;BME280;44895;47.438;18.978;2024-03-22T05:05:27;100330.72;;;10.87;100.00
59110;BME280;44895;47.438;18.978;2024-03-22T05:08:31;100325.38;;;10.76;100.00
59110;BME280;44895;47.438;18.978;2024-03-22T05:11:35;100322.84;;;10.85;100.00
59110;BME280;44895;47.438;18.978;2024-03-22T05:14:39;100325.16;;;10.73;100.00
59110;BME280;44895;47.438;18.978;2024-03-22T05:17:42;100321.75;;;10.86;100.00
59110;BME280;44895;47.438;18.978;2024-03-22T05:20:46;100333.44;;;10.87;100.00
59110;BME280;44895;47.438;18.978;2024-03-22T05:23:50;100322.31;;;10.83;100.00
59110;BME280;44895;47.438;18.978;2024-03-22T05:26:54;100339.38;;;10.89;100.00
59110;BME280;44895;47.438;18.978;2024-03-22T05:29:58;100330.13;;;10.90;100.00
59110;BME280;44895;47.438;18.978;2024-03-22T05:33:02;100338.56;;;10.88;100.00
59110;BME280;44895;47.438;18.978;2024-03-22T05:36:06;100332.09;;;11.08;100.00
59110;BME280;44895;47.438;18.978;2024-03-22T05:39:09;100333.19;;;11.07;100.00
59110;BME280;44895;47.438;18.978;2024-03-22T05:42:16;100328.78;;;11.12;100.00
59110;BME280;44895;47.438;18.978;2024-03-22T05:45:19;100314.56;;;11.20;100.00
59110;BME280;44895;47.438;18.978;2024-03-22T05:48:23;100320.78;;;11.20;100.00
59110;BME280;44895;47.438;18.978;2024-03-22T05:51:27;100320.78;;;11.20;100.00
59110;BME280;44895;47.438;18.978;2024-03-22T05:54:31;100322.34;;;11.26;100.00
59110;BME280;44895;47.438;18.978;2024-03-22T05:57:35;100323.88;;;11.33;100.00
59110;BME280;44895;47.438;18.978;2024-03-22T06:00:38;100328.16;;;11.39;100.00
59110;BME280;44895;47.438;18.978;2024-03-22T06:03:42;100328.25;;;11.53;100.00
59110;BME280;44895;47.438;18.978;2024-03-22T06:06:46;100328.72;;;11.55;100.00
59110;BME280;44895;47.438;18.978;2024-03-22T06:09:50;100325.75;;;11.56;100.00
59110;BME280;44895;47.438;18.978;2024-03-22T06:12:53;100322.72;;;11.58;100.00
59110;BME280;44895;47.438;18.978;2024-03-22T06:15:57;100321.41;;;11.55;100.00
59110;BME280;44895;47.438;18.978;2024-03-22T06:19:01;100323.81;;;11.57;100.00
59110;BME280;44895;47.438;18.978;2024-03-22T06:22:05;100307.94;;;11.64;100.00
59110;BME280;44895;47.438;18.978;2024-03-22T06:25:09;100313.31;;;11.69;100.00
59110;BME280;44895;47.438;18.978;2024-03-22T06:28:12;100316.31;;;11.68;100.00
59110;BME280;44895;47.438;18.978;2024-03-22T06:31:16;100320.28;;;11.75;100.00
59110;BME280;44895;47.438;18.978;2024-03-22T06:34:20;100318.38;;;11.76;100.00
59110;BME280;44895;47.438;18.978;2024-03-22T06:37:24;100315.13;;;11.74;100.00
59110;BME280;44895;47.438;18.978;2024-03-22T06:40:28;100309.53;;;12.03;100.00
59110;BME280;44895;47.438;18.978;2024-03-22T06:43:32;100311.66;;;12.06;100.00
59110;BME280;44895;47.438;18.978;2024-03-22T06:46:36;100317.25;;;12.29;100.00
59110;BME280;44895;47.438;18.978;2024-03-22T06:49:41;100319.81;;;12.53;100.00
59110;BME280;44895;47.438;18.978;2024-03-22T06:52:44;100319.84;;;12.67;100.00
59110;BME280;44895;47.438;18.978;2024-03-22T06:55:48;100319.63;;;12.64;100.00
59110;BME280;44895;47.438;18.978;2024-03-22T06:58:52;100325.19;;;12.59;100.00
59110;BME280;44895;47.438;18.978;2024-03-22T07:01:56;100320.56;;;12.59;100.00
59110;BME280;44895;47.438;18.978;2024-03-22T07:05:00;100324.38;;;12.72;100.00
59110;BME280;44895;47.438;18.978;2024-03-22T07:08:04;100332.25;;;12.73;100.00
59110;BME280;44895;47.438;18.978;2024-03-22T07:11:08;100333.69;;;12.85;100.00
59110;BME280;44895;47.438;18.978;2024-03-22T07:14:12;100338.13;;;12.95;100.00
59110;BME280;44895;47.438;18.978;2024-03-22T07:17:15;100343.69;;;12.89;100.00
59110;BME280;44895;47.438;18.978;2024-03-22T07:20:20;100334.38;;;13.04;100.00
59110;BME280;44895;47.438;18.978;2024-03-22T07:23:23;100332.34;;;13.24;100.00
59110;BME280;44895;47.438;18.978;2024-03-22T07:26:27;100338.19;;;13.31;100.00
59110;BME280;44895;47.438;18.978;2024-03-22T07:29:31;100338.19;;;13.31;100.00
59110;BME280;44895;47.438;18.978;2024-03-22T07:32:35;100339.31;;;13.44;100.00
59110;BME280;44895;47.438;18.978;2024-03-22T07:35:41;100335.56;;;13.40;100.00
59110;BME280;44895;47.438;18.978;2024-03-22T07:38:44;100331.72;;;13.27;100.00
59110;BME280;44895;47.438;18.978;2024-03-22T07:41:49;100339.13;;;13.13;100.00
59110;BME280;44895;47.438;18.978;2024-03-22T07:44:52;100343.03;;;13.20;100.00
59110;BME280;44895;47.438;18.978;2024-03-22T07:47:56;100350.13;;;13.21;100.00
59110;BME280;44895;47.438;18.978;2024-03-22T07:51:00;100365.06;;;13.24;100.00
59110;BME280;44895;47.438;18.978;2024-03-22T07:54:04;100347.59;;;13.25;100.00
59110;BME280;44895;47.438;18.978;2024-03-22T07:57:08;100360.19;;;13.35;100.00
59110;BME280;44895;47.438;18.978;2024-03-22T08:00:14;100365.88;;;13.38;100.00
59110;BME280;44895;47.438;18.978;2024-03-22T08:03:18;100363.66;;;13.41;100.00
59110;BME280;44895;47.438;18.978;2024-03-22T08:06:22;100372.03;;;13.44;100.00
59110;BME280;44895;47.438;18.978;2024-03-22T08:09:26;100375.13;;;13.65;100.00
59110;BME280;44895;47.438;18.978;2024-03-22T08:12:29;100375.47;;;13.50;100.00
59110;BME280;44895;47.438;18.978;2024-03-22T08:15:33;100364.84;;;13.48;100.00
59110;BME280;44895;47.438;18.978;2024-03-22T08:18:37;100360.09;;;13.54;100.00
59110;BME280;44895;47.438;18.978;2024-03-22T08:21:41;100366.00;;;13.70;100.00
59110;BME280;44895;47.438;18.978;2024-03-22T08:24:44;100364.88;;;14.08;100.00
59110;BME280;44895;47.438;18.978;2024-03-22T08:27:48;100364.00;;;14.21;100.00
59110;BME280;44895;47.438;18.978;2024-03-22T08:30:52;100368.97;;;14.19;100.00
59110;BME280;44895;47.438;18.978;2024-03-22T08:33:56;100366.72;;;14.21;100.00
59110;BME280;44895;47.438;18.978;2024-03-22T08:37:00;100357.06;;;14.46;100.00
59110;BME280;44895;47.438;18.978;2024-03-22T08:40:04;100356.63;;;14.76;100.00
59110;BME280;44895;47.438;18.978;2024-03-22T08:43:08;100352.22;;;15.06;100.00
59110;BME280;44895;47.438;18.978;2024-03-22T08:46:12;100348.44;;;15.42;100.00
59110;BME280;44895;47.438;18.978;2024-03-22T08:49:15;100344.75;;;16.08;100.00
59110;BME280;44895;47.438;18.978;2024-03-22T08:52:19;100342.34;;;16.72;100.00
59110;BME280;44895;47.438;18.978;2024-03-22T08:55:23;100337.28;;;18.39;87.64
59110;BME280;44895;47.438;18.978;2024-03-22T08:58:26;100340.47;;;17.96;84.33
59110;BME280;44895;47.438;18.978;2024-03-22T09:01:30;100343.63;;;17.13;85.74
59110;BME280;44895;47.438;18.978;2024-03-22T09:04:33;100341.28;;;17.24;83.95
59110;BME280;44895;47.438;18.978;2024-03-22T09:07:37;100345.03;;;19.08;74.54
59110;BME280;44895;47.438;18.978;2024-03-22T09:10:41;100341.09;;;19.34;71.14
59110;BME280;44895;47.438;18.978;2024-03-22T09:13:45;100344.66;;;18.60;69.32
59110;BME280;44895;47.438;18.978;2024-03-22T09:16:52;100339.19;;;18.26;73.43
59110;BME280;44895;47.438;18.978;2024-03-22T09:19:57;100338.84;;;17.73;78.21
59110;BME280;44895;47.438;18.978;2024-03-22T09:23:00;100332.97;;;19.37;72.63
59110;BME280;44895;47.438;18.978;2024-03-22T09:26:05;100335.00;;;20.54;63.89
59110;BME280;44895;47.438;18.978;2024-03-22T09:29:09;100327.09;;;20.52;62.47
59110;BME280;44895;47.438;18.978;2024-03-22T09:32:13;100325.56;;;20.55;60.82
59110;BME280;44895;47.438;18.978;2024-03-22T09:35:16;100329.69;;;20.01;62.68
59110;BME280;44895;47.438;18.978;2024-03-22T09:38:21;100321.19;;;19.12;67.46
59110;BME280;44895;47.438;18.978;2024-03-22T09:41:24;100325.44;;;18.97;68.99
59110;BME280;44895;47.438;18.978;2024-03-22T09:44:29;100326.00;;;19.03;68.55
59110;BME280;44895;47.438;18.978;2024-03-22T09:47:33;100329.66;;;18.95;69.39
59110;BME280;44895;47.438;18.978;2024-03-22T09:50:37;100324.59;;;18.84;69.15
59110;BME280;44895;47.438;18.978;2024-03-22T09:53:43;100318.44;;;19.12;67.70
59110;BME280;44895;47.438;18.978;2024-03-22T09:56:48;100303.28;;;18.81;69.81
59110;BME280;44895;47.438;18.978;2024-03-22T09:59:52;100308.97;;;18.39;70.41
59110;BME280;44895;47.438;18.978;2024-03-22T10:02:57;100303.72;;;18.83;69.57
59110;BME280;44895;47.438;18.978;2024-03-22T10:06:01;100307.41;;;18.75;71.07
59110;BME280;44895;47.438;18.978;2024-03-22T10:09:05;100306.16;;;18.85;70.89
59110;BME280;44895;47.438;18.978;2024-03-22T10:12:09;100306.38;;;18.55;72.14
59110;BME280;44895;47.438;18.978;2024-03-22T10:15:13;100299.25;;;18.41;73.23
59110;BME280;44895;47.438;18.978;2024-03-22T10:18:17;100296.75;;;18.73;72.39
59110;BME280;44895;47.438;18.978;2024-03-22T10:21:21;100286.66;;;18.65;72.49
59110;BME280;44895;47.438;18.978;2024-03-22T10:24:25;100290.66;;;18.55;76.66
59110;BME280;44895;47.438;18.978;2024-03-22T10:27:28;100287.44;;;18.41;73.20
59110;BME280;44895;47.438;18.978;2024-03-22T10:30:34;100279.16;;;18.16;72.61
59110;BME280;44895;47.438;18.978;2024-03-22T10:33:41;100276.66;;;18.23;73.90
59110;BME280;44895;47.438;18.978;2024-03-22T10:36:46;100273.25;;;18.51;72.19
59110;BME280;44895;47.438;18.978;2024-03-22T10:39:50;100274.16;;;18.55;69.96
59110;BME280;44895;47.438;18.978;2024-03-22T10:42:55;100273.38;;;18.55;68.95
59110;BME280;44895;47.438;18.978;2024-03-22T10:46:02;100273.94;;;18.48;70.35
59110;BME280;44895;47.438;18.978;2024-03-22T10:49:17;100258.81;;;18.54;70.20
59110;BME280;44895;47.438;18.978;2024-03-22T10:52:21;100274.41;;;18.63;71.37
59110;BME280;44895;47.438;18.978;2024-03-22T10:55:32;100269.09;;;18.82;70.40
59110;BME280;44895;47.438;18.978;2024-03-22T10:58:39;100269.69;;;18.63;68.11
59110;BME280;44895;47.438;18.978;2024-03-22T11:01:45;100275.31;;;18.42;67.12
59110;BME280;44895;47.438;18.978;2024-03-22T11:04:58;100277.25;;;18.54;68.51
59110;BME280;44895;47.438;18.978;2024-03-22T11:08:05;100264.88;;;18.48;66.14
59110;BME280;44895;47.438;18.978;2024-03-22T11:11:10;100265.56;;;18.69;64.05
59110;BME280;44895;47.438;18.978;2024-03-22T11:14:14;100272.00;;;18.49;61.86
59110;BME280;44895;47.438;18.978;2024-03-22T11:17:17;100266.66;;;18.19;60.15
59110;BME280;44895;47.438;18.978;2024-03-22T11:20:21;100268.31;;;18.69;61.29
59110;BME280;44895;47.438;18.978;2024-03-22T11:23:25;100259.50;;;18.76;58.85
59110;BME280;44895;47.438;18.978;2024-03-22T11:26:28;100258.13;;;18.45;58.45
59110;BME280;44895;47.438;18.978;2024-03-22T11:29:32;100258.41;;;18.19;57.34
59110;BME280;44895;47.438;18.978;2024-03-22T11:32:36;100257.53;;;18.52;57.58
59110;BME280;44895;47.438;18.978;2024-03-22T11:35:46;100243.44;;;18.29;55.15
59110;BME280;44895;47.438;18.978;2024-03-22T11:38:50;100239.31;;;18.22;54.41
59110;BME280;44895;47.438;18.978;2024-03-22T11:41:54;100241.16;;;18.31;55.25
59110;BME280;44895;47.438;18.978;2024-03-22T11:44:58;100240.78;;;18.20;54.64
59110;BME280;44895;47.438;18.978;2024-03-22T11:48:02;100240.59;;;18.50;54.98
59110;BME280;44895;47.438;18.978;2024-03-22T11:51:07;100239.91;;;18.65;53.85
59110;BME280;44895;47.438;18.978;2024-03-22T11:54:12;100228.53;;;18.79;54.29
59110;BME280;44895;47.438;18.978;2024-03-22T11:57:15;100225.44;;;18.81;54.50
59110;BME280;44895;47.438;18.978;2024-03-22T12:00:19;100223.75;;;18.51;55.95
59110;BME280;44895;47.438;18.978;2024-03-22T12:03:23;100226.50;;;18.76;57.33
59110;BME280;44895;47.438;18.978;2024-03-22T12:06:27;100222.63;;;18.65;58.12
59110;BME280;44895;47.438;18.978;2024-03-22T12:09:31;100217.00;;;18.73;59.02
59110;BME280;44895;47.438;18.978;2024-03-22T12:12:34;100207.00;;;18.94;58.31
59110;BME280;44895;47.438;18.978;2024-03-22T12:15:39;100200.94;;;18.63;58.01
59110;BME280;44895;47.438;18.978;2024-03-22T12:18:43;100185.25;;;18.76;58.68
59110;BME280;44895;47.438;18.978;2024-03-22T12:21:46;100205.41;;;18.68;58.51
59110;BME280;44895;47.438;18.978;2024-03-22T12:24:50;100198.09;;;18.60;59.40
59110;BME280;44895;47.438;18.978;2024-03-22T12:27:54;100188.72;;;18.48;58.97
59110;BME280;44895;47.438;18.978;2024-03-22T12:30:58;100185.50;;;18.34;58.83
59110;BME280;44895;47.438;18.978;2024-03-22T12:34:02;100193.84;;;18.00;59.40
59110;BME280;44895;47.438;18.978;2024-03-22T12:37:05;100188.81;;;18.27;59.24
59110;BME280;44895;47.438;18.978;2024-03-22T12:40:10;100192.59;;;18.35;58.47
59110;BME280;44895;47.438;18.978;2024-03-22T12:43:13;100184.53;;;18.67;59.94
59110;BME280;44895;47.438;18.978;2024-03-22T12:46:17;100182.97;;;18.53;60.03
59110;BME280;44895;47.438;18.978;2024-03-22T12:49:21;100176.78;;;18.56;59.45
59110;BME280;44895;47.438;18.978;2024-03-22T12:52:25;100171.16;;;18.53;58.38
59110;BME280;44895;47.438;18.978;2024-03-22T12:55:28;100174.72;;;18.41;58.21
59110;BME280;44895;47.438;18.978;2024-03-22T12:58:34;100170.94;;;18.46;57.57
59110;BME280;44895;47.438;18.978;2024-03-22T13:01:38;100165.91;;;18.35;58.13
59110;BME280;44895;47.438;18.978;2024-03-22T13:04:42;100163.97;;;18.23;57.92
59110;BME280;44895;47.438;18.978;2024-03-22T13:07:46;100146.56;;;18.19;57.68
59110;BME280;44895;47.438;18.978;2024-03-22T13:10:50;100144.50;;;18.04;58.46
59110;BME280;44895;47.438;18.978;2024-03-22T13:13:55;100141.19;;;18.23;56.83
59110;BME280;44895;47.438;18.978;2024-03-22T13:16:59;100145.06;;;18.22;58.48
59110;BME280;44895;47.438;18.978;2024-03-22T13:20:03;100134.06;;;18.22;56.88
59110;BME280;44895;47.438;18.978;2024-03-22T13:23:13;100127.66;;;18.05;57.13
59110;BME280;44895;47.438;18.978;2024-03-22T13:26:17;100129.03;;;17.99;56.66
59110;BME280;44895;47.438;18.978;2024-03-22T13:29:21;100128.88;;;17.83;56.78
59110;BME280;44895;47.438;18.978;2024-03-22T13:32:24;100123.31;;;18.04;56.82
59110;BME280;44895;47.438;18.978;2024-03-22T13:35:29;100107.41;;;17.98;57.15
59110;BME280;44895;47.438;18.978;2024-03-22T13:38:32;100118.13;;;17.90;58.91
59110;BME280;44895;47.438;18.978;2024-03-22T13:41:36;100109.84;;;17.78;58.30
59110;BME280;44895;47.438;18.978;2024-03-22T13:44:41;100098.66;;;17.71;57.48
59110;BME280;44895;47.438;18.978;2024-03-22T13:47:45;100096.91;;;17.54;57.74
59110;BME280;44895;47.438;18.978;2024-03-22T13:50:49;100098.50;;;17.55;57.07
59110;BME280;44895;47.438;18.978;2024-03-22T13:53:52;100095.41;;;17.56;57.45
59110;BME280;44895;47.438;18.978;2024-03-22T13:56:56;100097.88;;;17.24;57.72
59110;BME280;44895;47.438;18.978;2024-03-22T14:00:00;100091.78;;;17.19;57.61
59110;BME280;44895;47.438;18.978;2024-03-22T14:03:16;100093.06;;;17.34;56.97
59110;BME280;44895;47.438;18.978;2024-03-22T14:06:19;100094.84;;;17.17;57.47
59110;BME280;44895;47.438;18.978;2024-03-22T14:09:23;100088.78;;;17.11;57.61
59110;BME280;44895;47.438;18.978;2024-03-22T14:12:27;100087.75;;;17.04;57.48
59110;BME280;44895;47.438;18.978;2024-03-22T14:15:31;100086.66;;;16.96;57.97
59110;BME280;44895;47.438;18.978;2024-03-22T14:18:35;100086.72;;;16.87;57.90
59110;BME280;44895;47.438;18.978;2024-03-22T14:21:39;100080.75;;;16.85;56.05
59110;BME280;44895;47.438;18.978;2024-03-22T14:24:43;100072.41;;;16.82;56.76
59110;BME280;44895;47.438;18.978;2024-03-22T14:27:46;100073.56;;;16.59;56.70
59110;BME280;44895;47.438;18.978;2024-03-22T14:30:50;100060.16;;;16.58;57.98
59110;BME280;44895;47.438;18.978;2024-03-22T14:33:54;100063.53;;;16.63;58.06
59110;BME280;44895;47.438;18.978;2024-03-22T14:36:58;100060.84;;;16.55;57.70
59110;BME280;44895;47.438;18.978;2024-03-22T14:40:02;100050.53;;;16.52;59.02
59110;BME280;44895;47.438;18.978;2024-03-22T14:43:09;100050.09;;;16.50;58.17
59110;BME280;44895;47.438;18.978;2024-03-22T14:46:14;100045.31;;;16.38;57.48
59110;BME280;44895;47.438;18.978;2024-03-22T14:49:19;100039.59;;;16.30;57.21
59110;BME280;44895;47.438;18.978;2024-03-22T14:52:24;100028.75;;;16.13;58.24
59110;BME280;44895;47.438;18.978;2024-03-22T14:55:28;100032.69;;;16.24;58.29
59110;BME280;44895;47.438;18.978;2024-03-22T14:58:32;100040.00;;;16.20;57.21
59110;BME280;44895;47.438;18.978;2024-03-22T15:01:35;100036.97;;;16.13;56.57
59110;BME280;44895;47.438;18.978;2024-03-22T15:04:39;100038.88;;;15.91;54.84
59110;BME280;44895;47.438;18.978;2024-03-22T15:07:42;100030.03;;;15.77;53.56
59110;BME280;44895;47.438;18.978;2024-03-22T15:10:47;100043.28;;;15.75;53.81
59110;BME280;44895;47.438;18.978;2024-03-22T15:13:50;100039.72;;;15.74;54.25
59110;BME280;44895;47.438;18.978;2024-03-22T15:16:57;100032.78;;;15.77;54.14
59110;BME280;44895;47.438;18.978;2024-03-22T15:20:01;100022.53;;;15.65;54.64
59110;BME280;44895;47.438;18.978;2024-03-22T15:23:05;100032.81;;;15.68;54.89
59110;BME280;44895;47.438;18.978;2024-03-22T15:26:09;100028.38;;;15.55;55.33
59110;BME280;44895;47.438;18.978;2024-03-22T15:29:13;100035.50;;;15.47;54.28
59110;BME280;44895;47.438;18.978;2024-03-22T15:32:17;100037.22;;;15.52;55.09
59110;BME280;44895;47.438;18.978;2024-03-22T15:35:21;100032.31;;;15.36;54.94
59110;BME280;44895;47.438;18.978;2024-03-22T15:38:25;100029.59;;;15.27;55.39
59110;BME280;44895;47.438;18.978;2024-03-22T15:41:29;100028.31;;;15.25;54.93
59110;BME280;44895;47.438;18.978;2024-03-22T15:44:32;100025.41;;;15.21;55.34